EGHH METAR and TAF | Updated Today

EGHH METAR

Bournemouth Airport

Observation time: 16 min. ago

EGHH 292020Z 36001KT CAVOK 06/05 Q1009

Need help? Read our tutorial on how to read METARs or read the parsed version below.

Bournemouth Airport (EGHH) METAR

  • Weather conditions on Thu, 29 Sep 2022 20:20:00 +0000 (16 min. ago):
  • Present conditions: Dry
  • Clouds: Clear skies
  • Visibility: Greater than 10 km
  • Wind: 360 degrees at 1 knots
  • Temperature: 6 celsius
  • Dew point: 5 celsius
  • Pressure: 1009 millibars
  • Remarks: None


Useful to know...

EGHH TAF

Bournemouth Airport

TAF EGHH 291701Z 2918/2924 36003KT 9999 SCT045 PROB40 TEMPO 2922/2924 6000
Observation time: 3:35 hr. ago
Need help? Read our tutorial on how to read TAFs or read the parsed version below.

Parsed version of TAF for Bournemouth Airport (EGHH)

  • From 29 September at 18:00 UTC, to day 29 of the month at 24:00 UTC
  • Clouds: Scattered at 1372 meters
  • Visibility: Greater than 10 km
  • Wind: 360 degrees at 3
  • Expected to arise temporarily, from 29 September at 22:00 UTC, to day 29 of the month at 24:00 UTC
    Probability of 40%
  • Visibility: 6000 meters